Terminal Aerodrome Forecast
Issued by NWS Newport/Morehead City, NC

Home | Current Version | Previous Version | Text Only | Print | Product List | Glossary Off
Versions: 1 2 3 4 5 6 7 8 9 10 11 12 13 14 15 16

571
FTUS42 KMHX 171123
TAFEWN
TAF
KEWN 171123Z 1712/1812 01011KT P6SM SCT250
     FM171400 02010G18KT P6SM FEW250
     FM172200 02005KT P6SM SKC=

USA.gov is the U.S. government's official web portal to all federal, state and local government web resources and services.